Terminal Aerodrome Forecast
Issued by NWS

Home | Current Version | Previous Version | Text Only | Print | Product List | Glossary On
Versions: 1 2 3 4 5 6 7 8 9 10 11 12 13 14 15 16 17 18 19 20 21 22 23 24 25 26 27 28 29 30 31 32 33 34 35 36 37 38 39 40 41 42 43 44 45 46
309
FTAK31 PANC 231959 AAC
TAFADQ
TAF AMD
PADQ 231959Z 2320/2418 11010KT P6SM -SHRA SCT015 OVC025
      TEMPO 2320/2324 3SM -SHRA BR BKN015
     FM240600 28008KT P6SM -SHRA SCT025 OVC035=

USA.gov is the U.S. government's official web portal to all federal, state and local government web resources and services.